Time;durP1;ratioP1;P1;durP2;ratioP2;P2;SDS_P1;SDS_P2;PMS_P1;PMS_P2;Temp;Humidity;BMP_temperature;BMP_pressure;BME280_temperature;BME280_humidity;BME280_pressure;Samples;Min_cycle;Max_cycle;Signal;HPM_P1;HPM_P2
2021/10/23 00:02:22;;;;;;;0.70;0.20;;;21.30;48.90;;;;;;5029416;28;20053;-47
2021/10/23 00:04:49;;;;;;;0.50;0.25;;;21.30;48.90;;;;;;5037250;28;20033;-42
2021/10/23 00:07:16;;;;;;;0.65;0.63;;;21.30;48.90;;;;;;5032481;28;20037;-45
2021/10/23 00:09:45;;;;;;;2.10;0.30;;;21.30;48.90;;;;;;5041025;28;20043;-42
2021/10/23 00:12:12;;;;;;;0.22;0.10;;;21.30;48.80;;;;;;5031904;28;20052;-43
2021/10/23 00:14:39;;;;;;;1.67;0.60;;;21.20;48.70;;;;;;5038727;28;20040;-43
2021/10/23 00:17:06;;;;;;;2.17;0.20;;;21.30;48.80;;;;;;5040934;28;20051;-42
2021/10/23 00:19:33;;;;;;;3.40;0.20;;;21.20;48.70;;;;;;5043393;28;20041;-43
2021/10/23 00:22:00;;;;;;;0.60;0.22;;;21.30;48.80;;;;;;5033379;28;20039;-43
2021/10/23 00:24:27;;;;;;;1.10;0.40;;;21.20;48.70;;;;;;5035699;28;20121;-44
2021/10/23 00:26:56;;;;;;;1.25;0.35;;;21.20;48.70;;;;;;5055876;28;20531;-41
2021/10/23 00:29:23;;;;;;;1.85;0.40;;;21.30;48.70;;;;;;5038075;28;20583;-44
2021/10/23 00:31:50;;;;;;;1.38;0.40;;;21.30;48.70;;;;;;5040141;28;20166;-45
2021/10/23 00:34:20;;;;;;;2.13;0.20;;;21.20;48.60;;;;;;5033960;28;20050;-43
2021/10/23 00:36:47;;;;;;;0.20;0.20;;;21.20;48.60;;;;;;5032167;28;20057;-43
2021/10/23 00:39:14;;;;;;;0.85;0.20;;;21.20;48.60;;;;;;5035239;28;20049;-45
2021/10/23 00:41:42;;;;;;;0.75;0.28;;;21.20;48.60;;;;;;5041197;28;20049;-43
2021/10/23 00:44:28;;;;;;;0.40;0.10;;;21.20;48.60;;;;;;5046450;28;20041;-43
2021/10/23 00:46:55;;;;;;;3.25;0.30;;;21.30;48.70;;;;;;5036750;28;20048;-42
2021/10/23 00:49:22;;;;;;;5.38;0.68;;;21.20;49.00;;;;;;5033581;28;20076;-41
2021/10/23 00:51:49;;;;;;;5.20;0.30;;;21.20;49.30;;;;;;5029633;28;20041;-41
2021/10/23 00:54:16;;;;;;;1.55;0.30;;;21.20;49.40;;;;;;5029675;28;20042;-40
2021/10/23 00:56:43;;;;;;;4.22;0.60;;;21.30;49.50;;;;;;5039586;28;20124;-40
2021/10/23 00:59:10;;;;;;;5.10;0.45;;;21.20;49.50;;;;;;5035618;28;20052;-41
2021/10/23 01:01:39;;;;;;;2.22;0.20;;;21.30;49.70;;;;;;5033615;28;20605;-40
2021/10/23 01:04:06;;;;;;;1.27;0.40;;;21.30;49.80;;;;;;5042096;28;20106;-41
2021/10/23 01:06:34;;;;;;;2.42;0.52;;;21.30;49.80;;;;;;5040834;28;20464;-42
2021/10/23 01:09:01;;;;;;;2.33;0.25;;;21.30;49.80;;;;;;5041267;28;20416;-40
2021/10/23 01:11:28;;;;;;;2.70;0.13;;;21.20;49.80;;;;;;5037214;28;20086;-41
2021/10/23 01:13:55;;;;;;;7.97;1.58;;;21.30;49.80;;;;;;5039788;28;20112;-43
2021/10/23 01:16:23;;;;;;;9.07;1.48;;;21.30;49.80;;;;;;5040557;28;20560;-41
2021/10/23 01:18:51;;;;;;;0.30;0.20;;;21.30;49.90;;;;;;5039909;28;20045;-42
2021/10/23 01:21:22;;;;;;;1.10;0.13;;;21.30;49.90;;;;;;5043218;28;20045;-41
2021/10/23 01:23:49;;;;;;;1.60;0.20;;;21.30;49.90;;;;;;5042712;28;20041;-41
2021/10/23 01:26:16;;;;;;;0.30;0.30;;;21.30;49.90;;;;;;5036359;28;20512;-41
2021/10/23 01:28:43;;;;;;;1.80;0.20;;;21.30;49.90;;;;;;5038751;28;20038;-44
2021/10/23 01:31:10;;;;;;;1.55;0.35;;;21.30;49.90;;;;;;5041800;28;20041;-44
2021/10/23 01:33:37;;;;;;;3.33;0.47;;;21.30;49.90;;;;;;5045295;28;20041;-42
2021/10/23 01:36:09;;;;;;;1.85;1.08;;;21.30;49.90;;;;;;5039430;28;20033;-42
2021/10/23 01:38:37;;;;;;;1.00;0.10;;;21.30;49.90;;;;;;5044563;28;20044;-40
2021/10/23 01:41:05;;;;;;;4.55;0.30;;;21.30;50.00;;;;;;5038800;28;20052;-41
2021/10/23 01:43:32;;;;;;;0.90;0.35;;;21.30;49.90;;;;;;5039103;28;20417;-42
2021/10/23 01:46:00;;;;;;;2.88;0.20;;;21.30;50.00;;;;;;5041066;28;20049;-42
2021/10/23 01:48:27;;;;;;;1.83;0.35;;;21.30;50.00;;;;;;5032394;28;20124;-41
2021/10/23 01:50:54;;;;;;;1.75;0.20;;;21.30;50.00;;;;;;5038826;28;20068;-41
2021/10/23 01:53:22;;;;;;;7.57;0.20;;;21.30;50.00;;;;;;5032865;28;20108;-42
2021/10/23 01:55:52;;;;;;;0.77;0.57;;;21.30;49.90;;;;;;5036867;28;20041;-41
2021/10/23 01:58:19;;;;;;;0.80;0.40;;;21.40;50.00;;;;;;5035187;28;20540;-40
2021/10/23 02:00:46;;;;;;;1.20;0.65;;;21.40;50.00;;;;;;5043148;28;20494;-41
2021/10/23 02:03:14;;;;;;;1.70;0.20;;;21.40;50.00;;;;;;5031754;28;20045;-40
2021/10/23 02:05:41;;;;;;;1.15;0.75;;;21.40;49.90;;;;;;5038155;28;20049;-40
2021/10/23 02:08:08;;;;;;;2.80;0.20;;;21.40;49.90;;;;;;5032475;28;20045;-42
2021/10/23 02:10:35;;;;;;;2.42;0.20;;;21.40;49.80;;;;;;5034763;28;20039;-41
2021/10/23 02:13:03;;;;;;;2.42;0.65;;;21.40;49.80;;;;;;5032459;28;20492;-41
2021/10/23 02:15:30;;;;;;;0.90;0.43;;;21.40;49.80;;;;;;5032458;28;20112;-40
2021/10/23 02:17:57;;;;;;;0.60;0.30;;;21.40;49.70;;;;;;5045855;28;20128;-41
2021/10/23 02:20:26;;;;;;;0.80;0.20;;;21.40;49.70;;;;;;5035013;28;20041;-40
2021/10/23 02:22:53;;;;;;;3.20;0.40;;;21.40;49.70;;;;;;5036329;28;20087;-41
2021/10/23 02:25:20;;;;;;;0.25;0.20;;;21.40;49.70;;;;;;5032450;28;20118;-40
2021/10/23 02:27:47;;;;;;;0.93;0.25;;;21.40;49.60;;;;;;5030160;28;20041;-40
2021/10/23 02:30:15;;;;;;;2.53;0.40;;;21.40;49.60;;;;;;5032183;28;20060;-40
2021/10/23 02:32:42;;;;;;;3.83;0.38;;;21.40;49.60;;;;;;5037523;28;20053;-40
2021/10/23 02:35:10;;;;;;;1.15;0.68;;;21.40;49.60;;;;;;5031738;28;20117;-41
2021/10/23 02:37:37;;;;;;;0.57;0.20;;;21.40;49.60;;;;;;5034169;28;20068;-40
2021/10/23 02:40:05;;;;;;;1.00;0.63;;;21.40;49.60;;;;;;5033117;28;20127;-42
2021/10/23 02:42:32;;;;;;;0.63;0.10;;;21.40;49.70;;;;;;5032803;28;20049;-41
2021/10/23 02:44:59;;;;;;;0.30;0.30;;;21.40;49.60;;;;;;5031731;28;20471;-41
2021/10/23 02:47:28;;;;;;;1.25;0.22;;;21.40;49.70;;;;;;5036136;28;20528;-42
2021/10/23 02:49:55;;;;;;;2.70;0.35;;;21.40;49.60;;;;;;5037694;28;20090;-41
2021/10/23 02:52:23;;;;;;;1.48;0.10;;;21.40;49.60;;;;;;5031437;28;20049;-42
2021/10/23 02:54:50;;;;;;;3.38;0.30;;;21.40;49.60;;;;;;5030482;28;20044;-42
2021/10/23 02:57:18;;;;;;;2.28;0.20;;;21.40;49.70;;;;;;5032412;28;20048;-41
2021/10/23 02:59:45;;;;;;;2.60;0.20;;;21.40;49.70;;;;;;5039071;28;20047;-41
2021/10/23 03:02:12;;;;;;;0.65;0.20;;;21.40;49.60;;;;;;5031678;28;20041;-42
2021/10/23 03:04:41;;;;;;;0.93;0.10;;;21.40;49.70;;;;;;5038777;28;20041;-41
2021/10/23 03:07:08;;;;;;;0.80;0.20;;;21.40;49.60;;;;;;5042114;28;20049;-39
2021/10/23 03:09:35;;;;;;;1.08;0.20;;;21.40;49.50;;;;;;5046686;28;20041;-41
2021/10/23 03:12:04;;;;;;;0.43;0.10;;;21.40;49.50;;;;;;5046140;28;20062;-44
2021/10/23 03:14:31;;;;;;;0.30;0.10;;;21.40;49.50;;;;;;5047003;28;20040;-42
2021/10/23 03:16:58;;;;;;;2.78;0.45;;;21.40;49.50;;;;;;5046196;28;20039;-40
2021/10/23 03:19:25;;;;;;;0.52;0.30;;;21.40;49.40;;;;;;5046431;28;20048;-41
2021/10/23 03:21:53;;;;;;;0.65;0.10;;;21.40;49.40;;;;;;5046326;28;20033;-41
2021/10/23 03:24:20;;;;;;;1.65;0.20;;;21.40;49.40;;;;;;5044677;28;20040;-42
2021/10/23 03:26:47;;;;;;;0.90;0.38;;;21.40;49.40;;;;;;5047599;28;20049;-41
2021/10/23 03:29:14;;;;;;;0.25;0.15;;;21.40;49.30;;;;;;5046428;28;20041;-45
2021/10/23 03:31:41;;;;;;;3.35;0.98;;;21.40;49.30;;;;;;5046321;28;20055;-39
2021/10/23 03:34:08;;;;;;;0.32;0.10;;;21.40;49.90;;;;;;5046050;28;20497;-42
2021/10/23 03:36:36;;;;;;;2.45;0.13;;;21.40;49.30;;;;;;5046072;28;20127;-42
2021/10/23 03:39:04;;;;;;;0.63;0.20;;;21.40;49.30;;;;;;5046922;28;20045;-45
2021/10/23 03:41:31;;;;;;;5.70;0.32;;;21.40;49.20;;;;;;5046781;28;20124;-49
2021/10/23 03:43:59;;;;;;;0.30;0.20;;;21.40;49.20;;;;;;5046485;28;20055;-41
2021/10/23 03:46:26;;;;;;;3.05;0.10;;;21.40;49.30;;;;;;5046258;28;20202;-41
2021/10/23 03:48:53;;;;;;;0.40;0.10;;;21.40;49.30;;;;;;5048273;28;20057;-41
2021/10/23 03:51:20;;;;;;;0.40;0.30;;;21.40;49.30;;;;;;5050629;28;20063;-41
2021/10/23 03:53:47;;;;;;;1.98;0.10;;;21.40;49.30;;;;;;5051465;28;20044;-41
2021/10/23 03:56:17;;;;;;;1.65;0.85;;;21.30;49.20;;;;;;5049821;28;20087;-43
2021/10/23 03:58:46;;;;;;;0.10;0.10;;;21.30;49.20;;;;;;5050014;28;20079;-41
2021/10/23 04:01:13;;;;;;;3.10;0.25;;;21.40;49.30;;;;;;5050136;28;20043;-41
2021/10/23 04:03:40;;;;;;;2.58;0.20;;;21.30;49.30;;;;;;5049613;28;20123;-42
2021/10/23 04:06:07;;;;;;;0.43;0.10;;;21.40;49.40;;;;;;5050209;28;20033;-41
2021/10/23 04:08:34;;;;;;;0.30;0.20;;;21.30;49.40;;;;;;5050933;28;20489;-43
2021/10/23 04:11:01;;;;;;;1.25;0.20;;;21.40;49.40;;;;;;5049358;28;20520;-41
2021/10/23 04:13:29;;;;;;;0.98;0.20;;;21.30;49.40;;;;;;5049402;28;20060;-40
2021/10/23 04:15:56;;;;;;;3.50;0.13;;;21.40;49.50;;;;;;5049946;28;20033;-41
2021/10/23 04:18:23;;;;;;;1.38;0.60;;;21.40;49.50;;;;;;5049659;28;20033;-41
2021/10/23 04:20:50;;;;;;;0.38;0.30;;;21.40;49.40;;;;;;5050192;28;20485;-41
2021/10/23 04:23:17;;;;;;;1.05;0.30;;;21.40;49.40;;;;;;5049285;28;20041;-41
2021/10/23 04:25:44;;;;;;;0.75;0.10;;;21.30;49.30;;;;;;5049391;28;20045;-41
2021/10/23 04:28:11;;;;;;;0.20;0.20;;;21.40;49.40;;;;;;5049503;28;20053;-44
2021/10/23 04:30:40;;;;;;;2.30;0.10;;;21.30;49.40;;;;;;5049600;28;20044;-41
2021/10/23 04:33:07;;;;;;;1.85;0.25;;;21.30;49.40;;;;;;5049538;28;20080;-41
2021/10/23 04:35:34;;;;;;;3.40;0.10;;;21.40;49.40;;;;;;5050051;28;20045;-41
2021/10/23 04:38:01;;;;;;;0.88;0.10;;;21.30;49.50;;;;;;5049128;28;20350;-41
2021/10/23 04:40:28;;;;;;;3.75;0.10;;;21.30;49.40;;;;;;5048969;28;20041;-41
2021/10/23 04:42:55;;;;;;;1.80;0.10;;;21.30;49.40;;;;;;5049353;28;20076;-41
2021/10/23 04:45:22;;;;;;;26.90;1.85;;;21.30;49.30;;;;;;5049421;28;20040;-41
2021/10/23 04:47:50;;;;;;;4.72;0.10;;;21.30;49.30;;;;;;5050507;28;20044;-41
2021/10/23 04:50:17;;;;;;;1.75;0.20;;;21.30;49.30;;;;;;5048900;28;20040;-40
2021/10/23 04:52:44;;;;;;;5.35;0.30;;;21.30;49.20;;;;;;5049009;28;20129;-42
2021/10/23 04:55:11;;;;;;;1.20;0.38;;;21.30;49.20;;;;;;5048260;28;20048;-41
2021/10/23 04:57:38;;;;;;;0.40;0.10;;;21.30;49.20;;;;;;5048982;28;20044;-41
2021/10/23 05:00:06;;;;;;;1.95;0.30;;;21.30;49.20;;;;;;5048069;28;20052;-41
2021/10/23 05:02:34;;;;;;;3.03;0.20;;;21.30;49.20;;;;;;5049939;28;20052;-42
2021/10/23 05:05:02;;;;;;;1.75;0.20;;;21.30;49.20;;;;;;5048567;28;20114;-41
2021/10/23 05:07:29;;;;;;;1.50;0.35;;;21.30;49.20;;;;;;5048267;28;20509;-41
2021/10/23 05:09:56;;;;;;;0.47;0.10;;;21.30;49.20;;;;;;5044743;28;20693;-41
2021/10/23 05:12:23;;;;;;;1.85;0.10;;;21.30;49.20;;;;;;5048711;28;20124;-42
2021/10/23 05:14:50;;;;;;;0.88;0.15;;;21.30;49.20;;;;;;5050085;28;20401;-42
2021/10/23 05:17:17;;;;;;;1.05;0.43;;;21.30;49.30;;;;;;5048498;28;20045;-43
2021/10/23 05:19:44;;;;;;;1.30;0.10;;;21.30;49.20;;;;;;5048232;28;20043;-41
2021/10/23 05:22:12;;;;;;;0.73;0.20;;;21.30;49.20;;;;;;5048054;28;20120;-42
2021/10/23 05:24:39;;;;;;;0.28;0.20;;;21.30;49.20;;;;;;5048523;28;20052;-41
2021/10/23 05:27:06;;;;;;;3.33;0.50;;;21.30;49.80;;;;;;5048455;28;20041;-41
2021/10/23 05:29:33;;;;;;;2.08;0.30;;;21.30;49.20;;;;;;5049387;28;20063;-41
2021/10/23 05:32:00;;;;;;;1.95;0.30;;;21.30;49.20;;;;;;5048289;28;20052;-41
2021/10/23 05:34:28;;;;;;;0.98;0.10;;;21.30;49.20;;;;;;5047904;28;20041;-41
2021/10/23 05:36:55;;;;;;;2.20;0.10;;;21.30;49.20;;;;;;5047833;28;20052;-41
2021/10/23 05:39:23;;;;;;;10.70;0.75;;;21.30;49.20;;;;;;5047950;28;20033;-41
2021/10/23 05:41:50;;;;;;;3.05;0.10;;;21.30;49.30;;;;;;5049502;28;20079;-40
2021/10/23 05:44:18;;;;;;;1.92;0.10;;;21.30;49.30;;;;;;5048158;28;20045;-41
2021/10/23 05:46:45;;;;;;;1.52;0.22;;;21.30;49.30;;;;;;5048037;28;20132;-41
2021/10/23 05:49:12;;;;;;;0.40;0.10;;;21.30;49.30;;;;;;5048140;28;20049;-43
2021/10/23 05:51:39;;;;;;;2.20;0.10;;;21.20;49.20;;;;;;5047846;28;20507;-40
2021/10/23 05:54:06;;;;;;;1.42;0.63;;;21.30;49.30;;;;;;5048603;28;20055;-41
2021/10/23 05:56:34;;;;;;;2.72;0.10;;;21.20;49.20;;;;;;5048936;28;20044;-42
2021/10/23 05:59:10;;;;;;;0.30;0.20;;;21.30;49.20;;;;;;5047614;28;20037;-40
2021/10/23 06:01:37;;;;;;;1.80;0.20;;;21.30;49.20;;;;;;5047829;28;20049;-41
2021/10/23 06:04:05;;;;;;;2.75;0.20;;;21.20;49.20;;;;;;5047618;28;20037;-41
2021/10/23 06:06:33;;;;;;;2.47;0.10;;;21.20;49.10;;;;;;5047544;28;20453;-41
2021/10/23 06:09:01;;;;;;;1.80;0.90;;;21.20;49.10;;;;;;5048167;28;20571;-41
2021/10/23 06:11:30;;;;;;;3.70;0.22;;;21.30;49.20;;;;;;5048504;28;20049;-40
2021/10/23 06:13:58;;;;;;;0.20;0.10;;;21.20;49.10;;;;;;5047358;28;20044;-42
2021/10/23 06:16:26;;;;;;;1.88;0.10;;;21.20;49.10;;;;;;5046712;28;20596;-40
2021/10/23 06:18:54;;;;;;;1.00;0.10;;;21.20;49.10;;;;;;5043728;28;20080;-43
2021/10/23 06:21:21;;;;;;;0.55;0.10;;;21.20;49.10;;;;;;5046544;28;20037;-42
2021/10/23 06:23:48;;;;;;;0.30;0.10;;;21.20;49.10;;;;;;5048605;28;20509;-44
2021/10/23 06:26:15;;;;;;;0.70;0.57;;;21.20;49.10;;;;;;5047344;28;20045;-41
2021/10/23 06:28:42;;;;;;;2.20;0.20;;;21.20;49.10;;;;;;5047237;28;20040;-40
2021/10/23 06:31:12;;;;;;;0.20;0.10;;;21.20;49.10;;;;;;5047143;28;20132;-40
2021/10/23 06:33:39;;;;;;;0.40;0.30;;;21.20;49.10;;;;;;5047186;28;20041;-40
2021/10/23 06:36:06;;;;;;;0.47;0.10;;;21.20;49.10;;;;;;5047205;28;20049;-39
2021/10/23 06:38:33;;;;;;;1.25;0.10;;;21.20;49.00;;;;;;5048176;28;20512;-41
2021/10/23 06:41:00;;;;;;;0.70;0.10;;;21.20;49.00;;;;;;5046479;28;20148;-40
2021/10/23 06:43:27;;;;;;;4.65;0.10;;;21.20;49.00;;;;;;5046942;28;20129;-39
2021/10/23 06:45:54;;;;;;;1.00;0.32;;;21.20;49.00;;;;;;5046851;28;20044;-40
2021/10/23 06:48:23;;;;;;;0.30;0.25;;;21.20;49.00;;;;;;5046772;28;20048;-41
2021/10/23 06:50:50;;;;;;;0.20;0.10;;;21.20;49.00;;;;;;5047864;28;20037;-41
2021/10/23 06:53:18;;;;;;;1.55;0.73;;;21.20;49.00;;;;;;5046375;28;20415;-40
2021/10/23 06:55:45;;;;;;;0.15;0.10;;;21.20;49.00;;;;;;5046442;28;20041;-40
2021/10/23 06:58:13;;;;;;;0.95;0.20;;;21.20;49.00;;;;;;5046090;28;20052;-42
2021/10/23 07:00:40;;;;;;;0.45;0.10;;;21.20;49.00;;;;;;5046754;28;20052;-41
2021/10/23 07:03:07;;;;;;;0.28;0.17;;;21.20;49.20;;;;;;5036189;28;20122;-42
2021/10/23 07:05:35;;;;;;;11.95;4.90;;;21.20;49.50;;;;;;5041832;28;20068;-43
2021/10/23 07:08:03;;;;;;;3.22;0.75;;;21.20;50.30;;;;;;5046148;28;20047;-43
2021/10/23 07:10:30;;;;;;;4.03;0.77;;;21.20;50.60;;;;;;5044738;28;20763;-43
2021/10/23 07:12:58;;;;;;;6.35;1.30;;;21.30;50.80;;;;;;5041247;28;20044;-40
2021/10/23 07:15:25;;;;;;;11.45;0.45;;;21.30;51.00;;;;;;5042899;28;20144;-41
2021/10/23 07:17:52;;;;;;;5.65;0.57;;;21.30;51.10;;;;;;5044770;28;20037;-40
2021/10/23 07:20:19;;;;;;;3.45;0.50;;;21.30;51.20;;;;;;5035929;28;20135;-41
2021/10/23 07:22:49;;;;;;;0.88;0.30;;;21.30;51.20;;;;;;5037964;28;20531;-43
2021/10/23 07:25:16;;;;;;;0.70;0.28;;;21.30;51.40;;;;;;5045408;28;20891;-41
2021/10/23 07:27:44;;;;;;;6.32;0.35;;;21.30;51.40;;;;;;5045848;28;20040;-39
2021/10/23 07:30:12;;;;;;;15.82;0.43;;;21.40;51.50;;;;;;5046327;28;20060;-39
2021/10/23 07:32:41;;;;;;;12.23;0.90;;;21.30;51.40;;;;;;5047433;28;20038;-41
2021/10/23 07:35:09;;;;;;;4.22;0.40;;;21.40;51.30;;;;;;5046252;28;20088;-40
2021/10/23 07:37:36;;;;;;;2.70;0.20;;;21.40;51.20;;;;;;5046186;28;20060;-41
2021/10/23 07:40:07;;;;;;;4.95;0.20;;;21.40;51.10;;;;;;5046080;28;20033;-41
2021/10/23 07:42:35;;;;;;;0.77;0.35;;;21.40;51.10;;;;;;5046240;28;20033;-41
2021/10/23 07:45:02;;;;;;;2.60;0.30;;;21.40;51.10;;;;;;5046825;28;20044;-44
2021/10/23 07:47:29;;;;;;;3.85;0.40;;;21.40;51.00;;;;;;5046913;28;20045;-41
2021/10/23 07:49:57;;;;;;;3.80;0.30;;;21.40;51.00;;;;;;5045112;28;20037;-41
2021/10/23 07:52:24;;;;;;;0.45;0.17;;;21.40;50.90;;;;;;5028213;28;20540;-44
2021/10/23 07:54:51;;;;;;;0.60;0.17;;;21.40;50.90;;;;;;5046129;28;20051;-41
2021/10/23 07:57:20;;;;;;;1.27;0.30;;;21.40;50.90;;;;;;5045008;28;20729;-41
2021/10/23 07:59:47;;;;;;;4.38;0.35;;;21.40;50.80;;;;;;5047512;28;20040;-40
2021/10/23 08:02:14;;;;;;;2.78;0.50;;;21.40;50.80;;;;;;5045993;28;20539;-41
2021/10/23 08:04:41;;;;;;;4.35;0.57;;;21.40;51.30;;;;;;5045873;28;20116;-40
2021/10/23 08:07:09;;;;;;;0.93;0.10;;;21.40;51.30;;;;;;5046110;28;20068;-40
2021/10/23 08:09:37;;;;;;;3.60;0.20;;;21.40;50.70;;;;;;5046294;28;20398;-39
2021/10/23 08:12:05;;;;;;;3.05;0.52;;;21.40;50.60;;;;;;5046675;28;20049;-42
2021/10/23 08:14:35;;;;;;;0.77;0.38;;;21.40;50.60;;;;;;5047752;28;20417;-43
2021/10/23 08:17:03;;;;;;;2.90;0.38;;;21.40;50.50;;;;;;5044047;28;20128;-41
2021/10/23 08:19:30;;;;;;;4.72;0.10;;;21.40;50.50;;;;;;5046006;28;20560;-43
2021/10/23 08:21:57;;;;;;;3.40;0.50;;;21.40;50.50;;;;;;5046228;28;20087;-42
2021/10/23 08:24:24;;;;;;;2.20;0.30;;;21.40;50.40;;;;;;5045633;28;20140;-42
2021/10/23 08:26:52;;;;;;;0.38;0.17;;;21.40;50.40;;;;;;5047569;28;20056;-41
2021/10/23 08:29:19;;;;;;;0.22;0.20;;;21.40;50.40;;;;;;5045627;28;20531;-42
2021/10/23 08:31:47;;;;;;;0.90;0.10;;;21.40;50.40;;;;;;5045482;28;20037;-41
2021/10/23 08:34:14;;;;;;;1.45;0.20;;;21.40;50.40;;;;;;5046419;28;20511;-41
2021/10/23 08:36:41;;;;;;;0.82;0.10;;;21.40;50.40;;;;;;5049429;28;20126;-41
2021/10/23 08:39:09;;;;;;;2.05;0.28;;;21.50;50.40;;;;;;5049779;28;20044;-42
2021/10/23 08:41:36;;;;;;;2.30;1.15;;;21.50;50.30;;;;;;5050294;28;20647;-41
2021/10/23 08:44:05;;;;;;;0.55;0.35;;;21.50;50.30;;;;;;5048856;28;20049;-42
2021/10/23 08:46:35;;;;;;;2.05;0.30;;;21.50;50.30;;;;;;5048743;28;20049;-42
2021/10/23 08:49:04;;;;;;;1.10;0.20;;;21.50;50.20;;;;;;5048777;28;20056;-42
2021/10/23 08:51:33;;;;;;;1.17;0.25;;;21.50;50.20;;;;;;5049421;28;20312;-41
2021/10/23 08:54:00;;;;;;;1.95;0.15;;;21.50;50.10;;;;;;5049695;28;20580;-42
2021/10/23 08:56:28;;;;;;;1.85;0.90;;;21.50;50.10;;;;;;5050020;28;20044;-41
2021/10/23 08:58:55;;;;;;;2.20;0.20;;;21.50;50.00;;;;;;5048936;28;20045;-41
2021/10/23 09:01:22;;;;;;;0.47;0.32;;;21.50;50.00;;;;;;5048890;28;20044;-40
2021/10/23 09:03:49;;;;;;;1.67;0.68;;;21.50;49.90;;;;;;5048942;28;20136;-41
2021/10/23 09:06:30;;;;;;;2.00;0.30;;;21.50;49.90;;;;;;5048339;28;20049;-41
2021/10/23 09:09:02;;;;;;;0.25;0.17;;;21.60;49.90;;;;;;5046502;28;20148;-41
2021/10/23 09:11:31;;;;;;;1.52;0.10;;;21.60;49.90;;;;;;5049906;28;20048;-41
2021/10/23 09:14:20;;;;;;;2.47;0.40;;;21.60;49.80;;;;;;5048354;28;20091;-40
2021/10/23 09:16:48;;;;;;;3.72;0.63;;;21.60;49.80;;;;;;5049182;28;20127;-42
2021/10/23 09:19:15;;;;;;;2.13;0.15;;;21.60;49.80;;;;;;5048563;28;20505;-40
2021/10/23 09:21:44;;;;;;;0.65;0.15;;;21.60;49.80;;;;;;5048802;28;20505;-40
2021/10/23 09:24:22;;;;;;;1.95;0.20;;;21.60;49.70;;;;;;5048889;28;20041;-41
2021/10/23 09:26:51;;;;;;;0.20;0.20;;;21.60;49.60;;;;;;5050257;28;20130;-40
2021/10/23 09:29:20;;;;;;;0.95;0.10;;;21.60;49.60;;;;;;5048149;28;20045;-43
2021/10/23 09:31:48;;;;;;;1.08;0.35;;;21.60;49.60;;;;;;5048485;28;20036;-42
2021/10/23 09:34:17;;;;;;;0.95;0.30;;;21.60;49.50;;;;;;5048199;28;20044;-43
2021/10/23 09:36:48;;;;;;;0.25;0.15;;;21.70;49.50;;;;;;5048349;28;20052;-40
2021/10/23 09:39:26;;;;;;;1.35;0.35;;;21.70;49.50;;;;;;5048221;28;20039;-41
2021/10/23 09:42:15;;;;;;;0.50;0.50;;;21.70;49.40;;;;;;5049756;28;20128;-41
2021/10/23 09:45:03;;;;;;;0.30;0.10;;;21.70;49.30;;;;;;5049398;28;20069;-43
2021/10/23 09:47:32;;;;;;;2.92;0.22;;;21.70;49.40;;;;;;5048699;28;20049;-41
2021/10/23 09:50:12;;;;;;;0.98;0.30;;;21.70;50.00;;;;;;5047696;28;20072;-42
2021/10/23 09:53:00;;;;;;;1.13;0.15;;;21.70;49.30;;;;;;5046695;28;20382;-41
2021/10/23 09:55:30;;;;;;;1.45;0.40;;;21.70;49.30;;;;;;5048196;28;20037;-40
2021/10/23 09:58:17;;;;;;;2.00;0.20;;;21.70;49.30;;;;;;5047702;28;20044;-41
2021/10/23 10:00:46;;;;;;;2.03;0.20;;;21.70;49.20;;;;;;5034477;28;20072;-40
2021/10/23 10:03:15;;;;;;;0.50;0.43;;;21.70;49.30;;;;;;5048485;28;20537;-41
2021/10/23 10:05:42;;;;;;;1.00;0.10;;;21.70;49.20;;;;;;5049719;28;20048;-42
2021/10/23 10:08:12;;;;;;;1.02;0.20;;;21.70;49.20;;;;;;5047543;28;20044;-42
2021/10/23 10:10:41;;;;;;;0.32;0.10;;;21.70;49.10;;;;;;5047732;28;20078;-41
2021/10/23 10:13:10;;;;;;;1.30;0.47;;;21.80;49.20;;;;;;5047312;28;20523;-42
2021/10/23 10:15:38;;;;;;;2.72;0.20;;;21.70;49.10;;;;;;5047424;28;20118;-42
2021/10/23 10:18:06;;;;;;;2.20;0.10;;;21.80;49.10;;;;;;5047759;28;20103;-43
2021/10/23 10:20:37;;;;;;;0.30;0.10;;;21.80;49.00;;;;;;5048280;28;20052;-40
2021/10/23 10:23:05;;;;;;;0.57;0.20;;;21.80;49.00;;;;;;5047226;28;20052;-40
2021/10/23 10:25:34;;;;;;;1.13;0.20;;;21.80;49.00;;;;;;5047320;28;20124;-41
2021/10/23 10:28:12;;;;;;;1.38;0.35;;;21.80;49.00;;;;;;5047074;28;20076;-41
2021/10/23 10:30:44;;;;;;;0.40;0.10;;;21.80;48.90;;;;;;5032841;28;20044;-42
2021/10/23 10:33:26;;;;;;;1.85;0.20;;;21.80;48.90;;;;;;5047762;28;20497;-41
2021/10/23 10:36:20;;;;;;;1.85;0.35;;;21.90;48.90;;;;;;5049997;28;20493;-41
2021/10/23 10:39:03;;;;;;;0.57;0.30;;;21.90;48.90;;;;;;5047779;28;20041;-40
2021/10/23 10:44:11;;;;;;;1.38;0.20;;;21.80;48.80;;;;;;5046983;28;20120;-40
2021/10/23 10:47:18;;;;;;;0.52;0.10;;;21.80;48.80;;;;;;5047037;28;20055;-40
2021/10/23 10:49:56;;;;;;;0.10;0.10;;;21.90;48.80;;;;;;5046824;28;20056;-40
2021/10/23 10:53:00;;;;;;;0.70;0.10;;;21.90;48.80;;;;;;5045596;28;20041;-41
2021/10/23 10:55:38;;;;;;;0.82;0.15;;;21.90;48.70;;;;;;5046583;28;20094;-41
2021/10/23 10:58:09;;;;;;;0.85;0.10;;;21.90;48.70;;;;;;5046001;28;20818;-39
2021/10/23 11:01:12;;;;;;;1.20;0.30;;;21.90;48.70;;;;;;5046727;28;20052;-40
2021/10/23 11:03:48;;;;;;;0.88;0.63;;;22.00;48.60;;;;;;5032326;28;20155;-39
2021/10/23 11:06:41;;;;;;;2.13;0.20;;;22.00;48.60;;;;;;5046999;28;20072;-39
2021/10/23 11:09:45;;;;;;;0.88;0.10;;;22.10;48.40;;;;;;5044271;28;20598;-53
2021/10/23 11:12:27;;;;;;;1.55;0.13;;;22.10;48.30;;;;;;5044593;28;20041;-42
2021/10/23 11:14:56;;;;;;;0.22;0.20;;;22.10;48.40;;;;;;5045810;28;20061;-44
2021/10/23 11:17:24;;;;;;;2.47;0.47;;;22.10;48.20;;;;;;5047121;28;20091;-42
2021/10/23 11:19:56;;;;;;;1.52;0.15;;;22.10;48.20;;;;;;5046236;28;20055;-43
2021/10/23 11:22:27;;;;;;;0.85;0.20;;;22.10;48.10;;;;;;5046423;28;20663;-41
2021/10/23 11:24:58;;;;;;;0.50;0.20;;;22.10;48.00;;;;;;5046080;28;20041;-39
2021/10/23 11:27:31;;;;;;;0.52;0.20;;;22.10;48.00;;;;;;5046661;28;20045;-40
2021/10/23 11:30:25;;;;;;;0.50;0.10;;;22.10;48.00;;;;;;5044050;28;20037;-43
2021/10/23 11:32:56;;;;;;;3.50;0.38;;;22.20;47.90;;;;;;5047942;28;20449;-42
2021/10/23 11:35:35;;;;;;;1.75;0.40;;;22.10;48.00;;;;;;5046155;28;20037;-41
2021/10/23 11:38:04;;;;;;;0.65;0.20;;;22.20;47.90;;;;;;5046226;28;20089;-41
2021/10/23 11:40:32;;;;;;;1.95;0.20;;;22.20;47.90;;;;;;5044493;28;20481;-42
2021/10/23 11:42:59;;;;;;;1.58;0.20;;;22.20;47.90;;;;;;5046527;28;20045;-41
2021/10/23 11:45:29;;;;;;;1.05;0.65;;;22.30;47.80;;;;;;5046292;28;20068;-43
2021/10/23 11:47:58;;;;;;;0.40;0.10;;;22.40;47.70;;;;;;5045547;28;20128;-40
2021/10/23 11:50:27;;;;;;;5.10;0.52;;;22.40;47.60;;;;;;5046634;28;20543;-44
2021/10/23 11:52:56;;;;;;;1.58;0.75;;;22.40;47.40;;;;;;5042188;28;20045;-43
2021/10/23 11:55:32;;;;;;;1.27;0.20;;;22.50;47.30;;;;;;5046528;28;20060;-42
2021/10/23 11:58:00;;;;;;;1.10;0.10;;;22.50;47.10;;;;;;5046412;28;20408;-43
2021/10/23 12:00:30;;;;;;;0.57;0.20;;;22.50;47.10;;;;;;5030552;28;20064;-45
2021/10/23 12:03:03;;;;;;;0.60;0.10;;;22.50;47.00;;;;;;5043605;28;20049;-44
2021/10/23 12:05:43;;;;;;;0.20;0.10;;;22.50;46.90;;;;;;5047012;28;20075;-43
2021/10/23 12:08:21;;;;;;;0.20;0.10;;;22.60;46.90;;;;;;5046290;28;20132;-42
2021/10/23 12:11:22;;;;;;;0.32;0.10;;;22.60;46.90;;;;;;5049490;28;20500;-43
2021/10/23 12:14:05;;;;;;;0.25;0.20;;;22.60;46.80;;;;;;5050157;28;20069;-42
2021/10/23 12:16:40;;;;;;;0.30;0.20;;;22.60;46.80;;;;;;5049399;28;20132;-44
2021/10/23 12:19:12;;;;;;;2.45;0.40;;;22.60;46.70;;;;;;5049948;28;20128;-42
2021/10/23 12:21:49;;;;;;;1.58;0.50;;;22.60;46.70;;;;;;5050057;28;20047;-44
2021/10/23 12:24:25;;;;;;;0.55;0.10;;;22.70;46.70;;;;;;5048874;28;20048;-41
2021/10/23 12:27:14;;;;;;;1.55;0.10;;;22.70;46.60;;;;;;5051317;28;20037;-40
2021/10/23 12:29:44;;;;;;;0.52;0.10;;;22.70;46.50;;;;;;5051227;28;20052;-44
2021/10/23 12:32:13;;;;;;;1.15;0.10;;;22.70;46.50;;;;;;5049500;28;20136;-42
2021/10/23 12:35:01;;;;;;;0.13;0.10;;;22.70;46.50;;;;;;5049032;28;20033;-42
2021/10/23 12:37:36;;;;;;;0.40;0.10;;;22.80;46.30;;;;;;5049148;28;20037;-41
2021/10/23 12:40:08;;;;;;;0.57;0.00;;;22.80;46.40;;;;;;5049503;28;20090;-40
2021/10/23 12:42:35;;;;;;;0.10;0.10;;;22.90;46.40;;;;;;5049407;28;20045;-40
2021/10/23 12:45:03;;;;;;;0.40;0.20;;;22.90;46.30;;;;;;5049865;28;20164;-39
2021/10/23 12:47:32;;;;;;;0.30;0.10;;;22.90;46.30;;;;;;5050508;28;20155;-41
2021/10/23 12:49:59;;;;;;;1.38;0.10;;;23.00;46.20;;;;;;5044559;28;20051;-42
2021/10/23 12:52:26;;;;;;;0.63;0.10;;;23.00;46.10;;;;;;5031554;28;20045;-47
2021/10/23 12:54:53;;;;;;;0.73;0.10;;;23.00;46.00;;;;;;5049905;28;20041;-42
2021/10/23 12:57:20;;;;;;;0.73;0.10;;;23.00;45.90;;;;;;5051401;28;20071;-45
2021/10/23 12:59:48;;;;;;;1.30;0.10;;;23.00;45.80;;;;;;5050874;28;20049;-41
2021/10/23 13:02:15;;;;;;;0.10;0.10;;;23.00;45.80;;;;;;5049225;28;20045;-41